Time;durP1;ratioP1;P1;durP2;ratioP2;P2;SDS_P1;SDS_P2;PMS_P1;PMS_P2;Temp;Humidity;BMP_temperature;BMP_pressure;BME280_temperature;BME280_humidity;BME280_pressure;Samples;Min_cycle;Max_cycle;Signal;HPM_P1;HPM_P2
2023/03/31 00:02:23;;;;;;;24.60;13.40;;;;;;;;;;4352462;32;318621;-91
2023/03/31 00:04:52;;;;;;;23.70;13.30;;;;;;;;;;4368379;32;319275;-93
2023/03/31 00:07:21;;;;;;;21.93;12.53;;;;;;;;;;4356922;32;348679;-88
2023/03/31 00:09:53;;;;;;;21.33;11.30;;;;;;;;;;4369017;32;319070;-91
2023/03/31 00:12:21;;;;;;;19.43;12.43;;;;;;;;;;4357898;32;318710;-92
2023/03/31 00:14:49;;;;;;;19.57;10.23;;;;;;;;;;4367485;32;318539;-91
2023/03/31 00:17:17;;;;;;;20.33;11.67;;;;;;;;;;4359000;32;318788;-79
2023/03/31 00:19:48;;;;;;;25.90;11.60;;;;;;;;;;4368950;32;318917;-92
2023/03/31 00:22:17;;;;;;;21.07;12.03;;;;;;;;;;4356569;32;350526;-88
2023/03/31 00:24:44;;;;;;;20.43;12.70;;;;;;;;;;4367495;32;319390;-83
2023/03/31 00:27:13;;;;;;;23.90;15.27;;;;;;;;;;4357675;32;318600;-91
2023/03/31 00:29:42;;;;;;;27.33;14.23;;;;;;;;;;4368595;32;319329;-90
2023/03/31 00:32:09;;;;;;;25.03;14.00;;;;;;;;;;4368267;32;319486;-93
2023/03/31 00:34:37;;;;;;;33.00;16.10;;;;;;;;;;4351832;32;418192;-88
2023/03/31 00:37:05;;;;;;;27.77;14.97;;;;;;;;;;4366907;32;318458;-85
2023/03/31 00:39:34;;;;;;;27.20;15.13;;;;;;;;;;4352573;32;318865;-82
2023/03/31 00:42:03;;;;;;;25.47;14.87;;;;;;;;;;4383638;32;319142;-80
2023/03/31 00:44:33;;;;;;;23.70;14.47;;;;;;;;;;4365279;32;318749;-93
2023/03/31 00:47:05;;;;;;;26.23;15.73;;;;;;;;;;4369443;32;318662;-79
2023/03/31 00:49:35;;;;;;;30.07;15.17;;;;;;;;;;4372399;32;318549;-91
2023/03/31 00:52:08;;;;;;;32.00;14.33;;;;;;;;;;4383210;32;319088;-92
2023/03/31 00:54:37;;;;;;;23.63;10.73;;;;;;;;;;4373612;32;318479;-92
2023/03/31 00:57:06;;;;;;;19.73;11.40;;;;;;;;;;4382192;32;318458;-89
2023/03/31 00:59:37;;;;;;;16.33;9.83;;;;;;;;;;4373139;32;318336;-89
2023/03/31 01:02:05;;;;;;;19.47;9.00;;;;;;;;;;4383196;32;317491;-90
2023/03/31 01:04:35;;;;;;;16.57;6.97;;;;;;;;;;4373824;32;318404;-91
2023/03/31 01:07:11;;;;;;;11.77;6.40;;;;;;;;;;4371740;32;319040;-92
2023/03/31 01:09:40;;;;;;;11.47;7.10;;;;;;;;;;4357263;32;417582;-92
2023/03/31 01:12:12;;;;;;;23.33;9.07;;;;;;;;;;4360361;32;318124;-86
2023/03/31 01:14:39;;;;;;;11.30;7.00;;;;;;;;;;4355785;32;418047;-90
2023/03/31 01:17:08;;;;;;;11.90;7.33;;;;;;;;;;4375078;32;317640;-84
2023/03/31 01:19:50;;;;;;;14.43;7.53;;;;;;;;;;4369228;32;317868;-76
2023/03/31 01:22:58;;;;;;;16.80;7.73;;;;;;;;;;4369890;32;318276;-78
2023/03/31 01:25:55;;;;;;;17.80;8.87;;;;;;;;;;4339454;32;317303;-86
2023/03/31 01:28:34;;;;;;;19.60;9.50;;;;;;;;;;4358532;32;317691;-88
2023/03/31 01:31:37;;;;;;;23.00;10.23;;;;;;;;;;4367109;32;318138;-84
2023/03/31 01:34:37;;;;;;;17.60;10.50;;;;;;;;;;4355011;32;419280;-86
2023/03/31 01:37:38;;;;;;;29.63;14.20;;;;;;;;;;4342426;32;419421;-87
2023/03/31 01:40:37;;;;;;;26.17;14.07;;;;;;;;;;4340462;32;439825;-90
2023/03/31 01:43:11;;;;;;;22.67;12.27;;;;;;;;;;4353883;32;420699;-91
2023/03/31 01:45:55;;;;;;;16.30;10.77;;;;;;;;;;4361096;32;417116;-90
2023/03/31 01:48:32;;;;;;;19.93;10.67;;;;;;;;;;4368808;32;319117;-79
2023/03/31 01:51:03;;;;;;;17.83;10.47;;;;;;;;;;4368248;32;318705;-89
2023/03/31 01:53:35;;;;;;;24.63;12.07;;;;;;;;;;4351269;32;319025;-92
2023/03/31 01:56:09;;;;;;;19.33;11.17;;;;;;;;;;4368101;32;319280;-85
2023/03/31 01:58:39;;;;;;;19.20;10.37;;;;;;;;;;4357619;32;419591;-82
2023/03/31 02:01:14;;;;;;;21.07;11.03;;;;;;;;;;4383731;32;318314;-85
2023/03/31 02:03:48;;;;;;;19.13;10.60;;;;;;;;;;4379914;32;418534;-91
2023/03/31 02:06:20;;;;;;;21.53;11.20;;;;;;;;;;4376538;32;319552;-84
2023/03/31 02:08:55;;;;;;;23.63;13.90;;;;;;;;;;4370159;32;319432;-92
2023/03/31 02:11:26;;;;;;;24.23;14.77;;;;;;;;;;4362318;32;318654;-88
2023/03/31 02:13:54;;;;;;;29.37;18.97;;;;;;;;;;4383564;32;318483;-87
2023/03/31 02:16:29;;;;;;;30.83;18.70;;;;;;;;;;4358348;32;355969;-92
2023/03/31 02:19:01;;;;;;;25.57;15.90;;;;;;;;;;4385649;32;318696;-91
2023/03/31 02:21:29;;;;;;;24.30;14.13;;;;;;;;;;4375108;32;318627;-87
2023/03/31 02:23:59;;;;;;;23.07;13.43;;;;;;;;;;4385456;32;319349;-88
2023/03/31 02:26:31;;;;;;;27.03;14.17;;;;;;;;;;4375662;32;319339;-88
2023/03/31 02:28:59;;;;;;;33.13;16.47;;;;;;;;;;4385415;32;318650;-91
2023/03/31 02:31:32;;;;;;;32.80;17.27;;;;;;;;;;4367130;32;318887;-90
2023/03/31 02:34:00;;;;;;;29.13;14.00;;;;;;;;;;4369266;32;319106;-87
2023/03/31 02:36:27;;;;;;;26.40;12.43;;;;;;;;;;4353373;32;318552;-91
2023/03/31 02:38:57;;;;;;;27.87;13.47;;;;;;;;;;4378103;32;319430;-91
2023/03/31 02:41:24;;;;;;;29.17;14.03;;;;;;;;;;4375239;32;318713;-88
2023/03/31 02:43:52;;;;;;;27.93;15.13;;;;;;;;;;4385152;32;319497;-90
2023/03/31 02:46:21;;;;;;;27.43;14.40;;;;;;;;;;4375617;32;318871;-90
2023/03/31 02:48:52;;;;;;;22.90;13.27;;;;;;;;;;4386130;32;319331;-87
2023/03/31 02:51:51;;;;;;;28.47;15.03;;;;;;;;;;4376189;32;318674;-86
2023/03/31 02:54:48;;;;;;;21.23;14.37;;;;;;;;;;4387540;32;348151;-80
2023/03/31 02:57:49;;;;;;;27.93;15.77;;;;;;;;;;4392475;32;318157;-85
2023/03/31 03:00:22;;;;;;;28.77;14.17;;;;;;;;;;4330752;32;319325;-82
2023/03/31 03:03:02;;;;;;;29.73;14.80;;;;;;;;;;4377684;32;319509;-83
2023/03/31 03:05:36;;;;;;;27.80;14.57;;;;;;;;;;4359120;32;319176;-86
2023/03/31 03:08:16;;;;;;;28.87;14.40;;;;;;;;;;4369811;32;319193;-82
2023/03/31 03:10:57;;;;;;;25.87;14.53;;;;;;;;;;4357227;32;419430;-89
2023/03/31 03:13:30;;;;;;;27.60;13.93;;;;;;;;;;4351863;32;318525;-88
2023/03/31 03:16:08;;;;;;;25.60;16.23;;;;;;;;;;4354337;32;318668;-83
2023/03/31 03:18:35;;;;;;;25.70;15.53;;;;;;;;;;4367890;32;318423;-81
2023/03/31 03:21:06;;;;;;;25.17;14.67;;;;;;;;;;4378870;32;319184;-84
2023/03/31 03:23:33;;;;;;;28.87;14.97;;;;;;;;;;4356518;32;319232;-86
2023/03/31 03:26:00;;;;;;;25.63;15.03;;;;;;;;;;4383117;32;318795;-83
2023/03/31 03:28:27;;;;;;;24.13;14.27;;;;;;;;;;4372152;32;319075;-79
2023/03/31 03:30:54;;;;;;;19.90;12.63;;;;;;;;;;4383352;32;318485;-77
2023/03/31 03:33:23;;;;;;;23.20;14.27;;;;;;;;;;4373881;32;318327;-86
2023/03/31 03:35:50;;;;;;;25.90;13.03;;;;;;;;;;4388064;32;319094;-78
2023/03/31 03:38:17;;;;;;;26.27;13.70;;;;;;;;;;4389664;32;318742;-83
2023/03/31 03:40:44;;;;;;;29.67;15.87;;;;;;;;;;4384798;32;319373;-82
2023/03/31 03:43:11;;;;;;;27.97;18.40;;;;;;;;;;4396802;32;319234;-88
2023/03/31 03:45:38;;;;;;;31.27;18.67;;;;;;;;;;4356063;32;417866;-81
2023/03/31 03:48:05;;;;;;;34.60;18.87;;;;;;;;;;4380099;32;318878;-89
2023/03/31 03:50:39;;;;;;;31.13;17.07;;;;;;;;;;4378367;32;329959;-86
2023/03/31 03:53:06;;;;;;;23.53;13.63;;;;;;;;;;4383475;32;319498;-90
2023/03/31 03:55:33;;;;;;;20.13;12.20;;;;;;;;;;4348859;32;318408;-87
2023/03/31 03:58:00;;;;;;;22.73;11.70;;;;;;;;;;4368088;32;318480;-87
2023/03/31 04:00:26;;;;;;;21.47;11.43;;;;;;;;;;4350351;32;318402;-89
2023/03/31 04:02:56;;;;;;;52.10;27.07;;;;;;;;;;4356829;32;318835;-90
2023/03/31 04:05:24;;;;;;;105.03;45.83;;;;;;;;;;4342703;32;318978;-87
2023/03/31 04:07:54;;;;;;;76.90;36.30;;;;;;;;;;4353027;32;320337;-86
2023/03/31 04:10:21;;;;;;;50.73;26.33;;;;;;;;;;4344487;32;318708;-79
2023/03/31 04:12:48;;;;;;;48.80;23.67;;;;;;;;;;4351793;32;318565;-81
2023/03/31 04:15:15;;;;;;;44.17;23.17;;;;;;;;;;4343893;32;319366;-90
2023/03/31 04:17:49;;;;;;;42.60;21.93;;;;;;;;;;4353629;32;319459;-85
2023/03/31 04:20:17;;;;;;;43.00;21.83;;;;;;;;;;4344299;32;319771;-83
2023/03/31 04:22:45;;;;;;;33.87;17.90;;;;;;;;;;4355330;32;318665;-84
2023/03/31 04:25:17;;;;;;;32.40;18.53;;;;;;;;;;4344622;32;318717;-89
2023/03/31 04:27:49;;;;;;;32.03;18.07;;;;;;;;;;4355832;32;319556;-87
2023/03/31 04:30:21;;;;;;;53.67;29.20;;;;;;;;;;4359093;32;319378;-87
2023/03/31 04:32:50;;;;;;;58.13;30.40;;;;;;;;;;4368475;32;318883;-87
2023/03/31 04:35:19;;;;;;;42.57;24.67;;;;;;;;;;4355566;32;318491;-88
2023/03/31 04:37:47;;;;;;;41.93;24.23;;;;;;;;;;4351769;32;318538;-88
2023/03/31 04:40:16;;;;;;;49.33;25.87;;;;;;;;;;4343952;32;318860;-87
2023/03/31 04:42:43;;;;;;;37.33;24.70;;;;;;;;;;4352604;32;319416;-82
2023/03/31 04:45:12;;;;;;;33.27;20.43;;;;;;;;;;4362629;32;319404;-78
2023/03/31 04:47:39;;;;;;;39.70;24.13;;;;;;;;;;4353013;32;418511;-78
2023/03/31 04:50:09;;;;;;;41.03;21.53;;;;;;;;;;4364516;32;318467;-87
2023/03/31 04:52:36;;;;;;;33.17;20.70;;;;;;;;;;4343364;32;418638;-79
2023/03/31 04:55:03;;;;;;;29.07;18.17;;;;;;;;;;4354495;32;318191;-81
2023/03/31 04:57:33;;;;;;;28.67;17.33;;;;;;;;;;4352045;32;320035;-80
2023/03/31 05:00:01;;;;;;;27.63;17.83;;;;;;;;;;4363610;32;318554;-77
2023/03/31 05:02:30;;;;;;;24.83;15.87;;;;;;;;;;4356776;32;318565;-86
2023/03/31 05:04:57;;;;;;;26.07;16.60;;;;;;;;;;4369216;32;317561;-90
2023/03/31 05:07:28;;;;;;;26.63;17.90;;;;;;;;;;4359355;32;318742;-81
2023/03/31 05:10:03;;;;;;;28.73;17.03;;;;;;;;;;4368262;32;319545;-88
2023/03/31 05:12:34;;;;;;;32.10;16.70;;;;;;;;;;4358210;32;318491;-91
2023/03/31 05:15:04;;;;;;;56.73;30.53;;;;;;;;;;4368364;32;319199;-85
2023/03/31 05:17:33;;;;;;;49.50;27.10;;;;;;;;;;4359172;32;319303;-88
2023/03/31 05:20:04;;;;;;;73.63;35.10;;;;;;;;;;4368919;32;318485;-86
2023/03/31 05:22:34;;;;;;;46.07;30.20;;;;;;;;;;4357519;32;318654;-84
2023/03/31 05:25:02;;;;;;;59.27;33.63;;;;;;;;;;4368375;32;319242;-88
2023/03/31 05:27:31;;;;;;;67.80;33.20;;;;;;;;;;4358037;32;324660;-85
2023/03/31 05:29:58;;;;;;;73.80;45.63;;;;;;;;;;4381809;32;340512;-83
2023/03/31 05:32:28;;;;;;;87.47;48.10;;;;;;;;;;4373828;32;337359;-85
2023/03/31 05:34:56;;;;;;;127.27;77.30;;;;;;;;;;4383524;32;319116;-91
2023/03/31 05:37:24;;;;;;;146.60;82.60;;;;;;;;;;4357424;32;319616;-87
2023/03/31 05:39:52;;;;;;;197.50;106.30;;;;;;;;;;4364814;32;350945;-84
2023/03/31 05:42:20;;;;;;;308.93;165.27;;;;;;;;;;4355241;32;320745;-84
2023/03/31 05:44:48;;;;;;;176.73;96.13;;;;;;;;;;4363367;32;354936;-86
2023/03/31 05:47:16;;;;;;;120.27;72.53;;;;;;;;;;4320662;32;320060;-87
2023/03/31 05:49:43;;;;;;;97.23;62.20;;;;;;;;;;4361698;32;320510;-87
2023/03/31 05:52:12;;;;;;;105.47;61.57;;;;;;;;;;4352800;32;318667;-84
2023/03/31 05:54:40;;;;;;;63.83;34.27;;;;;;;;;;4346092;32;419122;-86
2023/03/31 05:57:09;;;;;;;43.70;23.93;;;;;;;;;;4365030;32;318806;-85
2023/03/31 05:59:37;;;;;;;40.13;22.60;;;;;;;;;;4352883;32;419972;-85
2023/03/31 06:02:05;;;;;;;34.70;19.90;;;;;;;;;;4358138;32;319639;-87
2023/03/31 06:04:32;;;;;;;25.43;14.90;;;;;;;;;;4342481;32;318518;-85
2023/03/31 06:06:59;;;;;;;13.93;9.33;;;;;;;;;;4351134;32;318551;-85
2023/03/31 06:09:27;;;;;;;16.27;7.50;;;;;;;;;;4342829;32;317993;-87
2023/03/31 06:11:55;;;;;;;13.90;7.67;;;;;;;;;;4352873;32;318061;-87
2023/03/31 06:14:22;;;;;;;19.53;10.13;;;;;;;;;;4343682;32;317690;-86
2023/03/31 06:16:49;;;;;;;24.33;11.30;;;;;;;;;;4368930;32;317980;-86
2023/03/31 06:19:17;;;;;;;121.93;59.40;;;;;;;;;;4340680;32;319293;-87
2023/03/31 06:21:44;;;;;;;60.83;27.83;;;;;;;;;;4363112;32;319969;-81
2023/03/31 06:24:11;;;;;;;129.13;36.07;;;;;;;;;;4357444;32;319077;-84
2023/03/31 06:26:38;;;;;;;30.20;14.77;;;;;;;;;;4367261;32;319746;-85
2023/03/31 06:29:06;;;;;;;28.17;13.57;;;;;;;;;;4362494;32;319504;-87
2023/03/31 06:31:33;;;;;;;25.70;9.97;;;;;;;;;;4341358;32;319204;-86
2023/03/31 06:34:00;;;;;;;15.53;9.30;;;;;;;;;;4354886;32;317720;-88
2023/03/31 06:36:29;;;;;;;18.50;13.13;;;;;;;;;;4351416;32;318288;-85
2023/03/31 06:38:56;;;;;;;10.13;6.93;;;;;;;;;;4364792;32;339294;-84
2023/03/31 06:41:23;;;;;;;10.93;7.30;;;;;;;;;;4361938;32;318283;-88
2023/03/31 06:43:50;;;;;;;16.63;6.93;;;;;;;;;;4360202;32;331617;-88
2023/03/31 06:46:17;;;;;;;7.50;5.20;;;;;;;;;;4352721;32;318346;-85
2023/03/31 06:48:45;;;;;;;13.83;8.63;;;;;;;;;;4378203;32;316641;-87
2023/03/31 06:51:12;;;;;;;17.50;10.83;;;;;;;;;;4361098;32;317905;-87
2023/03/31 06:53:41;;;;;;;11.37;7.37;;;;;;;;;;4385337;32;318449;-81
2023/03/31 06:56:08;;;;;;;14.40;8.10;;;;;;;;;;4384547;32;338466;-83
2023/03/31 06:58:35;;;;;;;26.77;13.47;;;;;;;;;;4372368;32;317909;-88
2023/03/31 07:01:02;;;;;;;21.90;11.33;;;;;;;;;;4372171;32;319625;-87
2023/03/31 07:03:29;;;;;;;17.83;11.83;;;;;;;;;;4374876;32;319527;-85
2023/03/31 07:05:58;;;;;;;26.53;11.77;;;;;;;;;;4373522;32;318771;-85
2023/03/31 07:08:25;;;;;;;19.70;12.33;;;;;;;;;;4367027;32;318963;-85
2023/03/31 07:10:57;;;;;;;20.60;12.30;;;;;;;;;;4367147;32;359481;-85
2023/03/31 07:13:25;;;;;;;19.57;11.47;;;;;;;;;;4369269;32;319503;-81
2023/03/31 07:15:53;;;;;;;20.60;12.30;;;;;;;;;;4384800;32;318906;-84
2023/03/31 07:18:30;;;;;;;28.10;13.70;;;;;;;;;;4375479;32;319346;-85
2023/03/31 07:20:58;;;;;;;20.90;9.87;;;;;;;;;;4383377;32;319486;-86
2023/03/31 07:23:25;;;;;;;13.13;7.43;;;;;;;;;;4372250;32;318580;-85
2023/03/31 07:25:51;;;;;;;16.40;9.13;;;;;;;;;;4371153;32;317856;-82
2023/03/31 07:28:19;;;;;;;13.67;6.83;;;;;;;;;;4341781;32;318443;-84
2023/03/31 07:30:46;;;;;;;13.97;8.20;;;;;;;;;;4355459;32;318302;-84
2023/03/31 07:33:13;;;;;;;45.97;12.60;;;;;;;;;;4359912;32;318783;-83
2023/03/31 07:35:41;;;;;;;21.73;13.10;;;;;;;;;;4375409;32;319260;-85
2023/03/31 07:38:08;;;;;;;33.93;13.33;;;;;;;;;;4384488;32;319456;-85
2023/03/31 07:40:36;;;;;;;19.37;9.83;;;;;;;;;;4355725;32;319231;-87
2023/03/31 07:43:03;;;;;;;30.07;11.77;;;;;;;;;;4355018;32;317723;-85
2023/03/31 07:45:34;;;;;;;21.90;11.07;;;;;;;;;;4359286;32;318846;-84
2023/03/31 07:48:04;;;;;;;25.03;11.47;;;;;;;;;;4374658;32;317582;-84
2023/03/31 07:50:31;;;;;;;28.10;12.47;;;;;;;;;;4347250;32;319482;-80
2023/03/31 07:52:58;;;;;;;15.10;10.73;;;;;;;;;;4373971;32;318877;-81
2023/03/31 07:55:26;;;;;;;37.03;18.33;;;;;;;;;;4359607;32;319392;-83
2023/03/31 07:57:52;;;;;;;28.73;12.43;;;;;;;;;;4367939;32;340798;-86
2023/03/31 08:00:20;;;;;;;24.67;13.27;;;;;;;;;;4360959;32;318786;-85
2023/03/31 08:02:49;;;;;;;28.73;13.30;;;;;;;;;;4374382;32;318644;-85
2023/03/31 08:05:18;;;;;;;17.17;11.33;;;;;;;;;;4374478;32;318616;-86
2023/03/31 08:07:47;;;;;;;27.07;10.50;;;;;;;;;;4382373;32;358534;-86
2023/03/31 08:10:16;;;;;;;18.13;9.37;;;;;;;;;;4374686;32;318520;-85
2023/03/31 08:12:43;;;;;;;18.57;9.13;;;;;;;;;;4362839;32;318249;-85
2023/03/31 08:15:11;;;;;;;20.20;6.73;;;;;;;;;;4368756;32;318126;-85
2023/03/31 08:17:37;;;;;;;21.27;9.27;;;;;;;;;;4356321;32;417567;-85
2023/03/31 08:20:09;;;;;;;20.83;9.57;;;;;;;;;;4382930;32;317908;-87
2023/03/31 08:22:37;;;;;;;17.00;8.60;;;;;;;;;;4373482;32;317680;-85
2023/03/31 08:25:04;;;;;;;14.53;7.40;;;;;;;;;;4374812;32;318197;-80
2023/03/31 08:27:33;;;;;;;18.65;8.20;;;;;;;;;;4359667;32;318151;-86
2023/03/31 08:30:03;;;;;;;10.30;6.30;;;;;;;;;;4376268;32;317716;-82
2023/03/31 08:32:31;;;;;;;7.47;5.67;;;;;;;;;;4371750;32;318603;-86
2023/03/31 08:34:58;;;;;;;14.07;6.17;;;;;;;;;;4381077;32;317286;-85
2023/03/31 08:37:27;;;;;;;9.77;6.20;;;;;;;;;;4384740;32;318412;-86
2023/03/31 08:39:59;;;;;;;13.20;6.87;;;;;;;;;;4388898;32;317281;-84
2023/03/31 08:42:36;;;;;;;21.20;8.10;;;;;;;;;;4355416;32;318270;-84
2023/03/31 08:45:16;;;;;;;24.77;8.73;;;;;;;;;;4384758;32;318195;-82
2023/03/31 08:47:45;;;;;;;15.23;7.75;;;;;;;;;;4370849;32;418020;-83
2023/03/31 08:50:17;;;;;;;19.03;10.13;;;;;;;;;;4370950;32;318039;-82
2023/03/31 08:52:50;;;;;;;22.80;9.33;;;;;;;;;;4381850;32;318964;-81
2023/03/31 08:55:24;;;;;;;12.17;8.90;;;;;;;;;;4373185;32;318862;-83
2023/03/31 08:57:58;;;;;;;16.87;7.70;;;;;;;;;;4381832;32;318305;-81
2023/03/31 09:00:25;;;;;;;16.33;6.80;;;;;;;;;;4359994;32;318193;-82
2023/03/31 09:02:59;;;;;;;13.40;6.25;;;;;;;;;;4382988;32;318095;-81
2023/03/31 09:05:41;;;;;;;15.05;6.05;;;;;;;;;;4373207;32;318491;-82
2023/03/31 09:08:19;;;;;;;11.37;5.17;;;;;;;;;;4381681;32;317337;-82
2023/03/31 09:10:54;;;;;;;11.63;4.53;;;;;;;;;;4366852;32;418070;-84
2023/03/31 09:13:51;;;;;;;9.68;4.07;;;;;;;;;;4368754;32;318348;-81
2023/03/31 09:16:24;;;;;;;4.45;2.83;;;;;;;;;;4352387;32;317170;-82
2023/03/31 09:18:57;;;;;;;5.12;2.45;;;;;;;;;;4367320;32;317199;-82
2023/03/31 09:21:30;;;;;;;13.73;2.90;;;;;;;;;;4368956;32;317181;-81
2023/03/31 09:24:05;;;;;;;5.80;2.80;;;;;;;;;;4396562;32;317506;-82
2023/03/31 09:26:38;;;;;;;8.38;3.05;;;;;;;;;;4373058;32;317263;-82
2023/03/31 09:29:10;;;;;;;5.40;2.20;;;;;;;;;;4381912;32;316603;-84
2023/03/31 09:31:40;;;;;;;5.70;2.42;;;;;;;;;;4353668;32;418014;-82
2023/03/31 09:34:14;;;;;;;3.50;2.03;;;;;;;;;;4364264;32;317004;-82
2023/03/31 09:36:41;;;;;;;7.57;2.10;;;;;;;;;;4347615;32;418374;-81
2023/03/31 09:39:12;;;;;;;9.50;2.22;;;;;;;;;;4367150;32;317131;-81
2023/03/31 09:41:44;;;;;;;8.48;3.20;;;;;;;;;;4357920;32;416909;-80
2023/03/31 09:44:23;;;;;;;7.07;2.62;;;;;;;;;;4385779;32;316051;-82
2023/03/31 09:46:51;;;;;;;8.15;2.75;;;;;;;;;;4370568;32;415082;-80
2023/03/31 09:49:21;;;;;;;6.90;2.75;;;;;;;;;;4373662;32;316935;-81
2023/03/31 09:51:51;;;;;;;4.43;2.45;;;;;;;;;;4380986;32;323433;-80
2023/03/31 09:54:29;;;;;;;5.55;2.58;;;;;;;;;;4358997;32;316969;-81
2023/03/31 09:56:58;;;;;;;7.87;2.20;;;;;;;;;;4376044;32;316319;-80
2023/03/31 09:59:33;;;;;;;7.12;2.92;;;;;;;;;;4366344;32;316866;-82
2023/03/31 10:02:03;;;;;;;5.07;2.35;;;;;;;;;;4398899;32;315024;-82
2023/03/31 10:04:32;;;;;;;7.10;2.80;;;;;;;;;;4388356;32;315985;-80
2023/03/31 10:07:00;;;;;;;8.38;1.90;;;;;;;;;;4398125;32;315148;-80
2023/03/31 10:09:32;;;;;;;8.98;2.55;;;;;;;;;;4388385;32;317527;-81
2023/03/31 10:12:04;;;;;;;8.32;2.30;;;;;;;;;;4384393;32;317170;-82
2023/03/31 10:14:40;;;;;;;9.13;2.62;;;;;;;;;;4371718;32;317229;-82
2023/03/31 10:17:14;;;;;;;11.40;3.05;;;;;;;;;;4382030;32;318044;-81
2023/03/31 10:19:48;;;;;;;6.28;2.53;;;;;;;;;;4366857;32;390087;-82
2023/03/31 10:22:26;;;;;;;15.82;1.67;;;;;;;;;;4379057;32;317421;-82
2023/03/31 10:25:10;;;;;;;6.00;2.17;;;;;;;;;;4398379;32;350989;-82
2023/03/31 10:27:41;;;;;;;9.63;2.50;;;;;;;;;;4373960;32;417259;-82
2023/03/31 10:30:12;;;;;;;5.55;2.17;;;;;;;;;;4359616;32;316359;-81
2023/03/31 10:32:41;;;;;;;7.82;2.22;;;;;;;;;;4361631;32;416401;-81
2023/03/31 10:35:21;;;;;;;3.22;2.17;;;;;;;;;;4397573;32;316662;-82
2023/03/31 10:37:52;;;;;;;6.80;2.78;;;;;;;;;;4363947;32;416581;-81
2023/03/31 10:40:24;;;;;;;10.98;3.50;;;;;;;;;;4389519;32;316079;-82
2023/03/31 10:43:00;;;;;;;7.40;2.92;;;;;;;;;;4400796;32;355778;-82
2023/03/31 10:45:29;;;;;;;10.13;2.85;;;;;;;;;;4375913;32;317185;-81
2023/03/31 10:47:59;;;;;;;3.87;2.35;;;;;;;;;;4373245;32;318197;-82
2023/03/31 10:50:31;;;;;;;5.20;2.87;;;;;;;;;;4384815;32;317153;-80
2023/03/31 10:53:03;;;;;;;12.48;2.22;;;;;;;;;;4405299;32;351912;-80
2023/03/31 10:55:36;;;;;;;11.38;2.33;;;;;;;;;;4399611;32;317522;-81
2023/03/31 10:58:16;;;;;;;14.75;2.97;;;;;;;;;;4397356;32;317956;-82
2023/03/31 11:00:56;;;;;;;5.90;2.58;;;;;;;;;;4392604;32;419109;-82
2023/03/31 11:03:48;;;;;;;8.67;4.07;;;;;;;;;;4387219;32;316428;-82
2023/03/31 11:06:21;;;;;;;7.85;2.90;;;;;;;;;;4378716;32;332866;-81
2023/03/31 11:08:56;;;;;;;10.52;3.33;;;;;;;;;;4395007;32;317214;-82
2023/03/31 11:11:41;;;;;;;10.32;3.65;;;;;;;;;;4376026;32;318381;-82
2023/03/31 11:14:17;;;;;;;10.23;4.50;;;;;;;;;;4387833;32;318309;-83
2023/03/31 11:16:52;;;;;;;10.02;2.85;;;;;;;;;;4379815;32;418959;-82
2023/03/31 11:19:29;;;;;;;12.57;3.70;;;;;;;;;;4371416;32;325928;-84
2023/03/31 11:22:04;;;;;;;6.55;2.55;;;;;;;;;;4398705;32;318618;-80
2023/03/31 11:24:57;;;;;;;8.30;3.40;;;;;;;;;;4379533;32;357443;-79
2023/03/31 11:27:40;;;;;;;7.93;3.55;;;;;;;;;;4373005;32;316614;-87
2023/03/31 11:30:13;;;;;;;8.02;2.42;;;;;;;;;;4398236;32;317221;-84
2023/03/31 11:32:58;;;;;;;14.38;3.30;;;;;;;;;;4382712;32;417041;-85
2023/03/31 11:35:44;;;;;;;4.97;2.67;;;;;;;;;;4371027;32;318199;-86
2023/03/31 11:38:26;;;;;;;11.40;2.97;;;;;;;;;;4382259;32;317029;-85
2023/03/31 11:41:00;;;;;;;11.90;3.35;;;;;;;;;;4385973;32;419372;-86
2023/03/31 11:43:32;;;;;;;7.27;3.60;;;;;;;;;;4387437;32;320766;-85
2023/03/31 11:46:05;;;;;;;5.97;3.37;;;;;;;;;;4387209;32;315769;-79
2023/03/31 11:48:40;;;;;;;7.87;3.30;;;;;;;;;;4380339;32;317112;-81
2023/03/31 11:51:14;;;;;;;11.00;3.55;;;;;;;;;;4398876;32;316798;-84
2023/03/31 11:53:43;;;;;;;9.57;2.28;;;;;;;;;;4355751;32;390897;-82
2023/03/31 11:56:13;;;;;;;6.72;2.15;;;;;;;;;;4398478;32;317200;-79
2023/03/31 11:58:45;;;;;;;8.50;3.08;;;;;;;;;;4386315;32;416876;-85
2023/03/31 12:01:18;;;;;;;13.85;3.50;;;;;;;;;;4389278;32;317793;-86
2023/03/31 12:03:54;;;;;;;7.50;2.97;;;;;;;;;;4363356;32;317659;-85
2023/03/31 12:06:27;;;;;;;6.68;2.60;;;;;;;;;;4359426;32;317126;-84
2023/03/31 12:09:05;;;;;;;8.38;2.47;;;;;;;;;;4364689;32;316379;-79
2023/03/31 12:11:39;;;;;;;5.47;2.28;;;;;;;;;;4366982;32;317403;-84
2023/03/31 12:14:21;;;;;;;7.35;2.53;;;;;;;;;;4378689;32;317195;-78
2023/03/31 12:16:51;;;;;;;7.12;2.25;;;;;;;;;;4385865;32;419064;-82
2023/03/31 12:19:22;;;;;;;6.62;2.80;;;;;;;;;;4374465;32;317396;-82
2023/03/31 12:21:53;;;;;;;5.50;2.55;;;;;;;;;;4377232;32;316741;-82
2023/03/31 12:24:19;;;;;;;8.88;2.60;;;;;;;;;;4367231;32;317649;-81
2023/03/31 12:27:04;;;;;;;9.15;3.33;;;;;;;;;;4369192;32;316198;-80
2023/03/31 12:29:36;;;;;;;5.65;2.75;;;;;;;;;;4357403;32;317184;-83
2023/03/31 12:32:07;;;;;;;6.43;2.28;;;;;;;;;;4368969;32;317082;-81
2023/03/31 12:34:46;;;;;;;4.05;2.08;;;;;;;;;;4358772;32;317340;-86
2023/03/31 12:37:57;;;;;;;6.80;2.60;;;;;;;;;;4351374;32;316773;-84
2023/03/31 12:40:37;;;;;;;9.45;2.90;;;;;;;;;;4358145;32;317196;-85
2023/03/31 12:43:23;;;;;;;8.07;2.50;;;;;;;;;;4367708;32;317044;-82
2023/03/31 12:46:01;;;;;;;7.85;3.33;;;;;;;;;;4356256;32;416944;-81
2023/03/31 12:48:42;;;;;;;5.40;2.53;;;;;;;;;;4352992;32;316520;-85
2023/03/31 12:51:24;;;;;;;13.30;2.83;;;;;;;;;;4374576;32;317138;-86
2023/03/31 12:54:05;;;;;;;18.08;2.42;;;;;;;;;;4382901;32;418344;-85
2023/03/31 12:57:02;;;;;;;5.93;1.90;;;;;;;;;;4386990;32;318255;-85
2023/03/31 12:59:33;;;;;;;7.62;2.72;;;;;;;;;;4374529;32;316616;-80
2023/03/31 13:02:24;;;;;;;5.57;1.98;;;;;;;;;;4388383;32;316615;-80
2023/03/31 13:04:52;;;;;;;7.62;3.10;;;;;;;;;;4385359;32;418766;-85
2023/03/31 13:07:39;;;;;;;5.90;2.50;;;;;;;;;;4390815;32;316992;-84
2023/03/31 13:10:27;;;;;;;8.40;3.15;;;;;;;;;;4395101;32;315406;-84
2023/03/31 13:13:01;;;;;;;5.87;2.42;;;;;;;;;;4385343;32;417449;-86
2023/03/31 13:15:29;;;;;;;14.30;3.20;;;;;;;;;;4396678;32;329513;-83
2023/03/31 13:18:01;;;;;;;15.80;3.42;;;;;;;;;;4386012;32;318227;-85
2023/03/31 13:20:36;;;;;;;11.38;2.53;;;;;;;;;;4359315;32;318834;-78
2023/03/31 13:23:06;;;;;;;4.35;2.35;;;;;;;;;;4373815;32;318134;-86
2023/03/31 13:25:49;;;;;;;3.45;2.20;;;;;;;;;;4367196;32;317092;-88
2023/03/31 13:28:26;;;;;;;4.80;2.47;;;;;;;;;;4385618;32;316532;-84
2023/03/31 13:30:56;;;;;;;6.18;2.80;;;;;;;;;;4394074;32;316318;-85
2023/03/31 13:33:28;;;;;;;7.90;2.95;;;;;;;;;;4375216;32;316232;-84
2023/03/31 13:36:14;;;;;;;9.35;3.17;;;;;;;;;;4381642;32;317073;-86
2023/03/31 13:38:52;;;;;;;7.15;3.10;;;;;;;;;;4367095;32;417672;-85
2023/03/31 13:41:33;;;;;;;8.95;2.37;;;;;;;;;;4370712;32;316613;-84
2023/03/31 13:44:28;;;;;;;7.37;2.15;;;;;;;;;;4377913;32;316750;-87
2023/03/31 13:47:18;;;;;;;6.03;2.53;;;;;;;;;;4359473;32;417104;-85
2023/03/31 13:49:56;;;;;;;4.60;2.22;;;;;;;;;;4376608;32;417240;-84
2023/03/31 13:52:36;;;;;;;11.85;3.45;;;;;;;;;;4380961;32;317525;-81
2023/03/31 13:55:34;;;;;;;6.50;2.70;;;;;;;;;;4379376;32;317089;-81
2023/03/31 13:58:43;;;;;;;10.45;2.53;;;;;;;;;;4361152;32;417820;-85
2023/03/31 14:01:40;;;;;;;12.07;2.58;;;;;;;;;;4394694;32;417771;-81
2023/03/31 14:04:25;;;;;;;6.82;2.28;;;;;;;;;;4362696;32;419170;-78
2023/03/31 14:06:58;;;;;;;8.05;2.15;;;;;;;;;;4340814;32;417546;-85
2023/03/31 14:09:33;;;;;;;7.22;2.50;;;;;;;;;;4379434;32;317357;-85
2023/03/31 14:12:01;;;;;;;6.07;2.08;;;;;;;;;;4397183;32;317149;-81
2023/03/31 14:14:28;;;;;;;11.30;2.53;;;;;;;;;;4355181;32;317121;-86
2023/03/31 14:16:58;;;;;;;8.32;2.37;;;;;;;;;;4371902;32;318094;-85
2023/03/31 14:19:55;;;;;;;8.85;1.70;;;;;;;;;;4386685;32;317157;-82
2023/03/31 14:22:36;;;;;;;5.53;2.55;;;;;;;;;;4374979;32;317295;-86
2023/03/31 14:25:14;;;;;;;9.45;2.75;;;;;;;;;;4397078;32;317076;-80
2023/03/31 14:28:03;;;;;;;6.72;2.83;;;;;;;;;;4362400;32;418588;-84
2023/03/31 14:30:41;;;;;;;2.92;2.05;;;;;;;;;;4360918;32;317243;-84
2023/03/31 14:33:21;;;;;;;5.50;2.65;;;;;;;;;;4373973;32;317102;-83
2023/03/31 14:35:56;;;;;;;8.70;3.58;;;;;;;;;;4367118;32;417999;-87
2023/03/31 14:38:29;;;;;;;5.32;2.35;;;;;;;;;;4377478;32;337570;-86
2023/03/31 14:40:59;;;;;;;4.40;2.33;;;;;;;;;;4398032;32;316762;-85
2023/03/31 14:43:32;;;;;;;8.45;2.20;;;;;;;;;;4387491;32;317074;-87
2023/03/31 14:46:00;;;;;;;5.12;2.28;;;;;;;;;;4397711;32;316543;-87
2023/03/31 14:48:29;;;;;;;3.95;2.03;;;;;;;;;;4387770;32;317233;-80